createdAt,value
2022-10-15T00:01:22.617Z,10.60
2022-10-15T00:03:52.292Z,10.60
2022-10-15T00:06:21.364Z,10.40
2022-10-15T00:08:48.856Z,10.40
2022-10-15T00:11:21.952Z,10.50
2022-10-15T00:13:49.157Z,10.60
2022-10-15T00:16:22.443Z,10.60
2022-10-15T00:18:50.355Z,10.70
2022-10-15T00:21:19.581Z,10.50
2022-10-15T00:23:50.172Z,10.40
2022-10-15T00:26:26.309Z,10.50
2022-10-15T00:28:55.474Z,10.70
2022-10-15T00:31:24.547Z,10.50
2022-10-15T00:33:55.967Z,10.50
2022-10-15T00:36:30.279Z,10.50
2022-10-15T00:38:57.614Z,10.70
2022-10-15T00:41:28.558Z,10.70
2022-10-15T00:44:15.562Z,10.60
2022-10-15T00:46:43.148Z,10.70
2022-10-15T00:49:21.301Z,10.70
2022-10-15T00:51:57.611Z,10.70
2022-10-15T00:54:28.090Z,10.70
2022-10-15T00:56:55.898Z,10.70
2022-10-15T00:59:25.971Z,10.70
2022-10-15T01:01:54.090Z,10.70
2022-10-15T01:04:22.442Z,10.80
2022-10-15T01:11:50.942Z,10.60
2022-10-15T01:14:57.028Z,10.60
2022-10-15T01:17:32.617Z,10.40
2022-10-15T01:20:18.136Z,10.70
2022-10-15T01:23:25.236Z,10.50
2022-10-15T01:25:55.898Z,10.60
2022-10-15T01:28:37.753Z,10.50
2022-10-15T01:31:29.247Z,10.50
2022-10-15T01:34:08.874Z,10.50
2022-10-15T01:36:57.654Z,10.50
2022-10-15T01:39:45.184Z,10.50
2022-10-15T01:42:38.810Z,10.40
2022-10-15T01:45:10.041Z,10.30
2022-10-15T01:47:43.823Z,10.40
2022-10-15T01:50:13.802Z,10.40
2022-10-15T01:52:42.164Z,10.50
2022-10-15T01:55:12.576Z,10.40
2022-10-15T01:57:43.919Z,10.50
2022-10-15T02:00:11.734Z,10.50
2022-10-15T02:02:38.650Z,10.70
2022-10-15T02:05:17.746Z,10.40
2022-10-15T02:07:50.108Z,10.50
2022-10-15T02:10:28.496Z,10.40
2022-10-15T02:13:18.855Z,10.50
2022-10-15T02:16:05.124Z,10.40
2022-10-15T02:18:39.792Z,10.60
2022-10-15T02:21:14.643Z,10.50
2022-10-15T02:24:11.023Z,10.50
2022-10-15T02:26:40.172Z,10.50
2022-10-15T02:29:12.019Z,10.60
2022-10-15T02:31:42.981Z,10.60
2022-10-15T02:34:14.036Z,10.40
2022-10-15T02:36:41.506Z,10.30
2022-10-15T02:39:13.087Z,10.30
2022-10-15T02:41:40.515Z,10.40
2022-10-15T02:44:07.361Z,10.30
2022-10-15T02:46:34.232Z,10.40
2022-10-15T02:51:35.405Z,10.30
2022-10-15T02:54:03.930Z,10.40
2022-10-15T02:56:31.129Z,10.60
2022-10-15T02:58:57.959Z,10.50
2022-10-15T03:01:24.955Z,10.40
2022-10-15T03:03:51.853Z,10.50
2022-10-15T03:08:46.476Z,10.70
2022-10-15T03:11:13.387Z,10.40
2022-10-15T03:16:09.930Z,10.50
2022-10-15T03:18:39.811Z,10.60
2022-10-15T03:21:07.737Z,10.60
2022-10-15T03:23:34.751Z,10.40
2022-10-15T03:28:29.179Z,10.60
2022-10-15T03:33:25.187Z,10.50
2022-10-15T03:35:52.876Z,10.40
2022-10-15T03:38:19.853Z,10.40
2022-10-15T03:40:47.043Z,10.40
2022-10-15T03:48:08.518Z,10.40
2022-10-15T03:53:06.886Z,10.40
2022-10-15T03:55:33.914Z,10.30
2022-10-15T04:00:28.526Z,10.30
2022-10-15T04:02:55.782Z,10.20
2022-10-15T04:05:22.667Z,10.20
2022-10-15T04:07:49.575Z,10.10
2022-10-15T04:10:16.444Z,10.00
2022-10-15T04:15:11.210Z,10.40
2022-10-15T04:17:38.036Z,10.30
2022-10-15T04:20:05.241Z,10.30
2022-10-15T04:22:32.142Z,10.20
2022-10-15T04:24:58.986Z,10.30
2022-10-15T04:27:25.872Z,10.40
2022-10-15T04:29:52.941Z,10.30
2022-10-15T04:32:19.896Z,10.30
2022-10-15T04:34:47.699Z,10.30
2022-10-15T04:37:14.824Z,10.20
2022-10-15T04:39:41.691Z,10.20
2022-10-15T04:42:08.503Z,10.20
2022-10-15T04:44:35.364Z,10.20
2022-10-15T04:47:02.564Z,10.10
2022-10-15T04:49:29.491Z,10.20
2022-10-15T04:51:56.384Z,10.10
2022-10-15T04:54:23.305Z,10.20
2022-10-15T04:59:17.454Z,10.10
2022-10-15T05:04:12.643Z,10.10
2022-10-15T05:06:40.341Z,10.00
2022-10-15T05:09:07.337Z,10.00
2022-10-15T05:11:36.211Z,10.00
2022-10-15T05:14:03.098Z,10.10
2022-10-15T05:16:30.928Z,10.00
2022-10-15T05:19:08.463Z,10.10
2022-10-15T05:21:36.095Z,10.00
2022-10-15T05:24:04.107Z,10.10
2022-10-15T05:26:32.882Z,10.10
2022-10-15T05:29:00.735Z,10.10
2022-10-15T05:31:30.552Z,10.10
2022-10-15T05:36:26.912Z,10.00
2022-10-15T05:38:59.379Z,10.10
2022-10-15T05:41:27.402Z,10.10
2022-10-15T05:43:56.773Z,10.30
2022-10-15T05:46:24.436Z,10.30
2022-10-15T05:48:53.461Z,10.30
2022-10-15T05:51:20.648Z,10.30
2022-10-15T05:56:16.136Z,10.10
2022-10-15T05:58:43.241Z,10.40
2022-10-15T06:01:12.059Z,10.50
2022-10-15T06:03:40.595Z,10.50
2022-10-15T06:06:22.076Z,10.50
2022-10-15T06:08:49.696Z,10.70
2022-10-15T06:11:17.405Z,10.80
2022-10-15T06:13:46.284Z,11.00
2022-10-15T06:16:17.895Z,11.10
2022-10-15T06:18:47.939Z,11.00
2022-10-15T06:26:10.587Z,12.50
2022-10-15T06:28:38.501Z,12.70
2022-10-15T06:33:33.350Z,12.80
2022-10-15T06:36:06.813Z,12.50
2022-10-15T06:38:33.827Z,12.50
2022-10-15T06:41:03.762Z,12.40
2022-10-15T06:46:02.277Z,12.00
2022-10-15T06:48:29.158Z,12.00
2022-10-15T06:50:59.275Z,12.10
2022-10-15T06:53:26.291Z,12.10
2022-10-15T06:55:57.080Z,12.10
2022-10-15T07:00:51.578Z,12.10
2022-10-15T07:03:18.433Z,12.10
2022-10-15T07:05:45.333Z,12.60
2022-10-15T07:13:14.286Z,14.60
2022-10-15T07:15:41.239Z,15.10
2022-10-15T07:18:08.107Z,15.30
2022-10-15T07:20:35.431Z,15.30
2022-10-15T07:23:02.744Z,15.50
2022-10-15T07:25:30.148Z,15.90
2022-10-15T07:27:57.603Z,16.50
2022-10-15T07:30:27.664Z,16.90
2022-10-15T07:32:57.506Z,16.60
2022-10-15T07:35:25.902Z,16.70
2022-10-15T07:37:52.734Z,16.40
2022-10-15T07:40:19.742Z,16.60
2022-10-15T07:42:53.548Z,16.90
2022-10-15T07:45:20.487Z,16.90
2022-10-15T07:47:47.325Z,16.80
2022-10-15T07:50:14.264Z,16.80
2022-10-15T07:52:41.516Z,17.80
2022-10-15T07:55:08.862Z,18.10
2022-10-15T07:57:35.700Z,17.90
2022-10-15T08:00:02.859Z,17.80
2022-10-15T08:02:29.806Z,17.80
2022-10-15T08:04:56.652Z,18.30
2022-10-15T08:07:23.890Z,17.90
2022-10-15T08:09:51.999Z,17.70
2022-10-15T08:12:18.906Z,17.30
2022-10-15T08:14:46.844Z,18.00
2022-10-15T08:17:13.716Z,18.50
2022-10-15T08:19:40.776Z,19.10
2022-10-15T08:22:07.714Z,19.30
2022-10-15T08:24:34.628Z,19.80
2022-10-15T08:27:01.465Z,19.50
2022-10-15T08:29:28.377Z,19.70
2022-10-15T08:31:55.220Z,19.60
2022-10-15T08:34:22.043Z,19.40
2022-10-15T08:36:48.914Z,19.20
2022-10-15T08:39:15.834Z,19.00
2022-10-15T08:41:51.723Z,19.00
2022-10-15T08:44:43.970Z,20.00
2022-10-15T08:47:28.910Z,20.70
2022-10-15T08:49:58.953Z,20.30
2022-10-15T08:52:48.623Z,19.30
2022-10-15T08:55:17.703Z,19.30
2022-10-15T08:57:53.945Z,18.90
2022-10-15T09:00:46.107Z,19.10
2022-10-15T09:03:24.682Z,18.90
2022-10-15T09:06:15.117Z,19.10
2022-10-15T09:11:34.470Z,19.90
2022-10-15T09:14:03.770Z,19.70
2022-10-15T09:16:37.709Z,20.50
2022-10-15T09:19:12.072Z,20.70
2022-10-15T09:21:39.048Z,20.80
2022-10-15T09:24:06.330Z,20.70
2022-10-15T09:26:54.871Z,20.70
2022-10-15T09:29:31.966Z,20.40
2022-10-15T09:32:23.394Z,20.70
2022-10-15T09:35:00.370Z,20.60
2022-10-15T09:37:33.316Z,20.20
2022-10-15T09:40:21.740Z,19.30
2022-10-15T09:42:51.063Z,19.00
2022-10-15T09:45:18.640Z,19.90
2022-10-15T09:47:45.570Z,20.20
2022-10-15T09:53:07.646Z,20.50
2022-10-15T09:55:54.354Z,20.80
2022-10-15T09:58:26.437Z,21.10
2022-10-15T10:00:55.050Z,20.90
2022-10-15T10:03:24.358Z,21.20
2022-10-15T10:08:25.376Z,20.50
2022-10-15T10:10:57.955Z,20.70
2022-10-15T10:13:29.058Z,21.50
2022-10-15T10:16:02.351Z,22.20
2022-10-15T10:18:29.251Z,22.70
2022-10-15T10:20:59.226Z,22.70
2022-10-15T10:23:47.736Z,23.50
2022-10-15T10:26:15.127Z,22.90
2022-10-15T10:29:09.939Z,22.80
2022-10-15T10:31:44.980Z,22.60
2022-10-15T10:34:17.615Z,22.70
2022-10-15T10:36:50.612Z,23.20
2022-10-15T10:39:28.967Z,22.90
2022-10-15T10:41:57.101Z,22.50
2022-10-15T10:44:34.271Z,22.70
2022-10-15T10:47:25.591Z,22.90
2022-10-15T10:49:57.530Z,21.70
2022-10-15T10:52:38.449Z,22.30
2022-10-15T10:55:26.491Z,22.10
2022-10-15T10:57:58.049Z,22.20
2022-10-15T11:00:30.358Z,22.10
2022-10-15T11:02:57.607Z,22.60
2022-10-15T11:05:30.088Z,22.20
2022-10-15T11:08:09.826Z,22.70
2022-10-15T11:10:59.935Z,22.50
2022-10-15T11:13:53.484Z,22.90
2022-10-15T11:16:38.634Z,23.20
2022-10-15T11:19:50.422Z,23.20
2022-10-15T11:22:43.913Z,23.90
2022-10-15T11:25:13.663Z,24.80
2022-10-15T11:27:49.474Z,24.40
2022-10-15T11:30:32.369Z,24.40
2022-10-15T11:33:19.402Z,23.60
2022-10-15T11:36:14.694Z,23.50
2022-10-15T11:39:00.387Z,22.80
2022-10-15T11:41:44.447Z,23.60
2022-10-15T11:44:38.874Z,23.60
2022-10-15T11:47:28.978Z,22.40
2022-10-15T11:50:24.964Z,22.00
2022-10-15T11:53:16.407Z,21.40
2022-10-15T11:55:53.546Z,21.90
2022-10-15T11:58:33.165Z,21.40
2022-10-15T12:01:06.922Z,20.80
2022-10-15T12:03:42.335Z,20.90
2022-10-15T12:06:15.291Z,20.90
2022-10-15T12:08:43.603Z,21.00
2022-10-15T12:11:22.392Z,21.10
2022-10-15T12:14:11.393Z,21.20
2022-10-15T12:16:50.614Z,20.90
2022-10-15T12:19:20.495Z,20.70
2022-10-15T12:21:56.125Z,20.50
2022-10-15T12:24:38.035Z,20.00
2022-10-15T12:27:19.873Z,19.50
2022-10-15T12:30:13.126Z,19.40
2022-10-15T12:32:48.755Z,19.00
2022-10-15T12:35:15.766Z,18.80
2022-10-15T12:37:46.153Z,18.80
2022-10-15T12:40:27.627Z,18.70
2022-10-15T12:42:57.467Z,18.60
2022-10-15T12:45:54.497Z,18.80
2022-10-15T12:48:30.322Z,18.80
2022-10-15T12:51:22.034Z,18.70
2022-10-15T12:53:50.944Z,18.70
2022-10-15T12:56:17.764Z,18.80
2022-10-15T12:59:05.098Z,19.30
2022-10-15T13:01:43.827Z,19.60
2022-10-15T13:04:11.904Z,19.70
2022-10-15T13:06:40.231Z,20.30
2022-10-15T13:09:09.776Z,20.80
2022-10-15T13:11:57.436Z,20.90
2022-10-15T13:14:27.277Z,21.40
2022-10-15T13:19:35.047Z,21.60
2022-10-15T13:22:03.968Z,21.40
2022-10-15T13:24:40.044Z,21.40
2022-10-15T13:27:33.039Z,20.90
2022-10-15T13:30:01.538Z,20.50
2022-10-15T13:32:32.973Z,20.50
2022-10-15T13:35:10.767Z,20.00
2022-10-15T13:37:41.143Z,19.60
2022-10-15T13:40:08.761Z,19.80
2022-10-15T13:42:36.227Z,19.60
2022-10-15T13:45:12.264Z,19.60
2022-10-15T13:47:42.651Z,19.40
2022-10-15T13:50:24.859Z,19.20
2022-10-15T13:53:03.560Z,19.20
2022-10-15T13:55:36.497Z,19.00
2022-10-15T13:58:30.247Z,19.00
2022-10-15T14:01:16.823Z,18.80
2022-10-15T14:04:03.900Z,18.70
2022-10-15T14:06:38.169Z,18.50
2022-10-15T14:09:13.912Z,18.40
2022-10-15T14:11:40.819Z,18.30
2022-10-15T14:14:30.256Z,18.20
2022-10-15T14:16:59.121Z,18.20
2022-10-15T14:19:29.936Z,17.90
2022-10-15T14:21:59.667Z,17.90
2022-10-15T14:24:36.142Z,17.90
2022-10-15T14:27:15.339Z,17.70
2022-10-15T14:29:44.819Z,17.70
2022-10-15T14:32:27.384Z,17.80
2022-10-15T14:35:02.606Z,17.50
2022-10-15T14:37:43.014Z,17.50
2022-10-15T14:40:10.072Z,17.50
2022-10-15T14:42:49.353Z,17.60
2022-10-15T14:45:24.044Z,17.40
2022-10-15T14:47:54.617Z,17.30
2022-10-15T14:50:28.555Z,17.40
2022-10-15T14:52:56.672Z,17.20
2022-10-15T14:55:23.797Z,17.20
2022-10-15T14:57:51.984Z,17.30
2022-10-15T15:00:27.655Z,17.10
2022-10-15T15:02:57.060Z,17.00
2022-10-15T15:05:28.831Z,17.10
2022-10-15T15:07:57.230Z,17.10
2022-10-15T15:10:26.585Z,17.10
2022-10-15T15:12:56.332Z,17.10
2022-10-15T15:15:25.229Z,17.00
2022-10-15T15:17:52.349Z,16.90
2022-10-15T15:20:20.632Z,17.10
2022-10-15T15:22:50.741Z,17.10
2022-10-15T15:25:19.507Z,16.90
2022-10-15T15:27:46.990Z,17.00
2022-10-15T15:30:25.431Z,16.90
2022-10-15T15:32:52.376Z,16.80
2022-10-15T15:35:28.914Z,16.80
2022-10-15T15:37:55.967Z,16.80
2022-10-15T15:40:22.838Z,16.50
2022-10-15T15:42:50.771Z,16.50
2022-10-15T15:45:25.981Z,16.40
2022-10-15T15:47:53.224Z,16.40
2022-10-15T15:50:21.811Z,16.30
2022-10-15T15:52:48.827Z,16.20
2022-10-15T15:57:43.142Z,16.30
2022-10-15T16:00:10.792Z,16.30
2022-10-15T16:02:38.654Z,16.20
2022-10-15T16:05:06.939Z,16.20
2022-10-15T16:07:34.781Z,16.30
2022-10-15T16:12:34.255Z,16.20
2022-10-15T16:15:02.081Z,16.30
2022-10-15T16:17:28.961Z,16.10
2022-10-15T16:19:55.985Z,16.10
2022-10-15T16:24:50.097Z,16.20
2022-10-15T16:29:44.250Z,16.20
2022-10-15T16:32:11.552Z,16.20
2022-10-15T16:34:38.445Z,16.10
2022-10-15T16:37:06.196Z,16.00
2022-10-15T16:42:00.790Z,16.00
2022-10-15T16:44:27.633Z,16.00
2022-10-15T16:46:54.616Z,15.80
2022-10-15T16:49:21.891Z,15.70
2022-10-15T16:51:48.734Z,15.80
2022-10-15T16:56:43.818Z,15.80
2022-10-15T16:59:10.695Z,15.80
2022-10-15T17:01:37.844Z,15.50
2022-10-15T17:04:05.040Z,15.60
2022-10-15T17:06:32.054Z,15.60
2022-10-15T17:09:01.223Z,15.60
2022-10-15T17:11:34.878Z,15.60
2022-10-15T17:14:05.138Z,15.60
2022-10-15T17:16:44.343Z,15.60
2022-10-15T17:19:12.642Z,15.50
2022-10-15T17:21:42.346Z,15.50
2022-10-15T17:24:11.724Z,15.60
2022-10-15T17:26:40.888Z,15.50
2022-10-15T17:29:13.709Z,15.50
2022-10-15T17:34:11.324Z,15.30
2022-10-15T17:36:44.969Z,15.40
2022-10-15T17:39:16.712Z,15.30
2022-10-15T17:41:44.003Z,15.40
2022-10-15T17:44:11.814Z,15.50
2022-10-15T17:46:39.186Z,15.20
2022-10-15T17:49:08.000Z,15.40
2022-10-15T17:51:35.258Z,15.30
2022-10-15T17:54:02.984Z,15.20
2022-10-15T17:56:31.986Z,15.20
2022-10-15T17:59:01.024Z,15.30
2022-10-15T18:01:56.146Z,15.20
2022-10-15T18:04:17.407Z,15.20
2022-10-15T18:06:45.044Z,15.20
2022-10-15T18:09:12.126Z,15.20
2022-10-15T18:11:39.059Z,15.10
2022-10-15T18:14:06.059Z,15.20
2022-10-15T18:16:33.058Z,14.90
2022-10-15T18:21:28.559Z,15.00
2022-10-15T18:26:26.056Z,14.90
2022-10-15T18:28:54.263Z,15.00
2022-10-15T18:31:22.371Z,14.80
2022-10-15T18:33:52.167Z,15.00
2022-10-15T18:36:25.245Z,14.90
2022-10-15T18:38:53.033Z,15.00
2022-10-15T18:41:27.773Z,15.00
2022-10-15T18:43:59.527Z,15.00
2022-10-15T18:46:27.824Z,14.90
2022-10-15T18:51:25.497Z,14.90
2022-10-15T18:53:56.017Z,15.00
2022-10-15T18:56:26.114Z,14.60
2022-10-15T18:58:53.038Z,14.70
2022-10-15T19:01:30.139Z,14.70
2022-10-15T19:03:59.656Z,14.80
2022-10-15T19:06:30.545Z,14.80
2022-10-15T19:09:02.010Z,14.70
2022-10-15T19:11:30.096Z,14.50
2022-10-15T19:13:58.197Z,14.70
2022-10-15T19:16:25.191Z,14.70
2022-10-15T19:18:52.201Z,14.60
2022-10-15T19:21:19.265Z,14.60
2022-10-15T19:23:49.015Z,14.60
2022-10-15T19:26:18.934Z,14.50
2022-10-15T19:31:29.677Z,14.50
2022-10-15T19:33:58.242Z,14.40
2022-10-15T19:36:35.090Z,14.40
2022-10-15T19:39:07.707Z,14.30
2022-10-15T19:41:41.424Z,14.40
2022-10-15T19:44:09.241Z,14.40
2022-10-15T19:46:37.598Z,14.20
2022-10-15T19:49:06.315Z,14.30
2022-10-15T19:51:34.251Z,14.30
2022-10-15T19:54:01.211Z,14.30
2022-10-15T19:56:31.325Z,14.20
2022-10-15T19:59:00.339Z,14.30
2022-10-15T20:01:28.754Z,14.30
2022-10-15T20:04:03.119Z,14.30
2022-10-15T20:06:34.205Z,14.20
2022-10-15T20:09:02.338Z,14.10
2022-10-15T20:11:29.470Z,14.20
2022-10-15T20:13:57.223Z,14.10
2022-10-15T20:16:24.835Z,14.00
2022-10-15T20:18:53.479Z,14.00
2022-10-15T20:23:48.009Z,14.00
2022-10-15T20:26:16.510Z,14.10
2022-10-15T20:28:46.915Z,14.00
2022-10-15T20:31:20.716Z,13.80
2022-10-15T20:33:48.132Z,13.80
2022-10-15T20:36:22.691Z,13.90
2022-10-15T20:39:03.680Z,14.00
2022-10-15T20:41:33.510Z,13.90
2022-10-15T20:44:00.485Z,13.90
2022-10-15T20:46:50.121Z,14.10
2022-10-15T20:49:23.113Z,14.10
2022-10-15T20:51:53.434Z,13.90
2022-10-15T20:56:48.510Z,13.90
2022-10-15T20:59:15.485Z,14.00
2022-10-15T21:01:42.438Z,14.00
2022-10-15T21:04:09.393Z,13.90
2022-10-15T21:09:07.323Z,13.90
2022-10-15T21:11:34.203Z,14.00
2022-10-15T21:14:04.702Z,13.90
2022-10-15T21:19:02.524Z,13.90
2022-10-15T21:21:29.466Z,13.90
2022-10-15T21:23:57.787Z,13.80
2022-10-15T21:26:25.022Z,13.90
2022-10-15T21:28:58.658Z,13.80
2022-10-15T21:31:31.299Z,13.80
2022-10-15T21:34:00.789Z,13.80
2022-10-15T21:36:33.484Z,13.70
2022-10-15T21:39:07.212Z,13.90
2022-10-15T21:41:37.418Z,13.80
2022-10-15T21:44:05.905Z,13.70
2022-10-15T21:46:32.892Z,13.70
2022-10-15T21:49:01.863Z,13.60
2022-10-15T21:51:33.794Z,13.70
2022-10-15T21:54:02.653Z,13.60
2022-10-15T21:56:33.684Z,13.60
2022-10-15T21:59:09.460Z,13.50
2022-10-15T22:04:11.918Z,13.70
2022-10-15T22:06:43.069Z,13.60
2022-10-15T22:09:13.909Z,13.60
2022-10-15T22:11:42.460Z,13.60
2022-10-15T22:14:12.185Z,13.50
2022-10-15T22:16:41.221Z,13.40
2022-10-15T22:19:10.290Z,13.30
2022-10-15T22:21:38.682Z,13.40
2022-10-15T22:24:09.126Z,13.30
2022-10-15T22:26:39.712Z,13.20
2022-10-15T22:29:17.609Z,13.30
2022-10-15T22:39:07.861Z,13.10
2022-10-15T22:41:39.980Z,13.00
2022-10-15T22:44:08.855Z,12.90
2022-10-15T22:46:37.752Z,12.90
2022-10-15T22:49:06.367Z,12.90
2022-10-15T22:51:33.877Z,12.80
2022-10-15T22:54:01.483Z,12.90
2022-10-15T22:56:29.260Z,12.90
2022-10-15T22:58:57.245Z,12.80
2022-10-15T23:01:26.334Z,13.00
2022-10-15T23:03:55.916Z,12.90
2022-10-15T23:08:51.672Z,12.70
2022-10-15T23:11:21.452Z,12.70
2022-10-15T23:13:56.181Z,12.80
2022-10-15T23:16:25.451Z,12.70
2022-10-15T23:18:58.825Z,12.60
2022-10-15T23:21:38.560Z,12.40
2022-10-15T23:24:06.000Z,12.40
2022-10-15T23:26:34.940Z,12.40
2022-10-15T23:29:03.521Z,12.40
2022-10-15T23:31:33.048Z,12.40
2022-10-15T23:34:01.939Z,12.40
2022-10-15T23:36:30.033Z,12.40
2022-10-15T23:39:02.406Z,12.30
2022-10-15T23:41:30.304Z,12.20
2022-10-15T23:43:57.256Z,12.20
2022-10-15T23:46:24.505Z,12.20
2022-10-15T23:48:52.298Z,12.20
2022-10-15T23:51:26.798Z,10.80
2022-10-15T23:53:55.430Z,11.90
2022-10-15T23:56:23.366Z,11.90
2022-10-15T23:58:52.424Z,12.00
